Weather observations for the past three days for
Slayton Municipal Airport
Imperial (Metric)
Date Time (cdt) Wind (mph) Vis. (mi.) Weather Sky Cond. Temperature (ºF) Relative Humidity Wind Chill (°F) Heat Index (°F) Pressure Precipitation (in)
Air Dwpt 6 hour altimeter (in) sea level (mb) 1 hr 3 hr 6 hr
Max. Min.
10 09:33 W 13 G 18 10.00 Fair CLR 56.8 28.8 34% 30.13 0.0
10 09:13 W 14 G 20 10.00 Fair CLR 56.3 28.4 34% 30.13 0.0
10 08:53 SW 15 10.00 Fair CLR 55.2 28.2 36% 30.13 0.0
10 08:33 W 16 10.00 Fair CLR 54 27.3 36% 30.13 0.0
10 08:13 W 15 G 20 10.00 Fair CLR 52.7 27.5 38% 30.12 0.0
10 07:53 W 13 10.00 Fair CLR 50.4 27.5 41% 30.12 0.0
10 07:33 W 13 10.00 Fair CLR 49.3 26.6 41% 45 30.12 0.0
10 07:13 W 7 10.00 Fair CLR 47.7 26.6 44% 45 30.11 0.0
10 06:53 W 7 10.00 Fair CLR 44.8 25.3 44.8 37.6 47% 41 30.11 0.0
10 06:33 SW 8 10.00 Fair CLR 41.9 25.7 53% 37 30.11 0.0
10 06:13 SW 13 10.00 Fair CLR 41.9 25.5 52% 36 30.11 0.0
10 05:53 SW 13 10.00 Fair CLR 41.2 25.3 53% 35 30.1 0.0
10 05:33 W 3 10.00 Fair CLR 41 24.6 52% 30.1 0.0
10 05:13 SW 8 10.00 Fair CLR 39.9 24.8 55% 35 30.1 0.0
10 04:53 SW 9 10.00 Fair CLR 41.4 24.6 51% 36 30.1 0.0
10 04:33 SW 7 10.00 Fair CLR 38.8 24.4 56% 34 30.09 0.0
10 04:13 W 6 10.00 Fair CLR 40.1 24.4 54% 37 30.09 0.0
10 03:53 W 6 10.00 Fair CLR 39.9 25 55% 36 30.08 0.0
10 03:33 W 3 10.00 Fair CLR 40.6 24.4 53% 30.07 0.0
10 03:13 W 5 10.00 Fair CLR 40.3 24.8 54% 38 30.07 0.0
10 02:53 W 5 10.00 Fair CLR 39.2 24.8 56% 36 30.06 0.0
10 02:33 W 3 10.00 Fair CLR 39.2 24.6 56% 30.06 0.0
10 02:13 W 3 10.00 Fair CLR 39.4 25.2 57% 30.06 0.0
10 01:53 W 3 10.00 Fair CLR 38.8 25.2 58% 30.06 0.0
10 01:33 W 3 10.00 Fair CLR 40.3 25.2 55% 30.06 0.0
10 01:13 W 3 10.00 Fair CLR 39.9 24.6 54% 30.06 0.0
10 00:53 W 3 10.00 Fair CLR 41.4 24.6 57.4 39.7 51% 30.06 0.0
10 00:33 W 3 10.00 Fair CLR 40.5 24.4 53% 30.05 0.0
10 00:13 W 5 10.00 Fair CLR 40.5 23.5 51% 38 30.05 0.0
09 23:53 W 6 10.00 Fair CLR 41.2 23.2 49% 38 30.04 0.0
09 23:33 W 6 10.00 Fair CLR 41 23 49% 38 30.04 0.0
09 23:13 W 5 10.00 Fair CLR 42.1 23.7 48% 40 30.04 0.0
09 22:53 W 6 10.00 Fair CLR 42.3 23.4 47% 39 30.04 0.0
09 22:33 NW 6 10.00 Fair CLR 43.7 23.5 45% 41 30.04 0.0
09 22:13 NW 6 10.00 Fair CLR 43.9 23.7 45% 41 30.03 0.0
09 21:53 NW 7 10.00 Fair CLR 46 24.4 43% 43 30.02 0.0
09 21:33 NW 6 10.00 Fair CLR 45 24.1 44% 42 30.01 0.0
09 21:13 NW 7 10.00 Fair CLR 47.3 24.1 40% 44 30 0.0
09 20:53 NW 7 10.00 Fair CLR 48.9 24.8 39% 46 29.99 0.0
09 20:33 NW 8 10.00 Fair CLR 53.4 24.1 32% 29.98 0.0
09 20:13 NW 9 10.00 Fair CLR 54.1 24.1 31% 29.97 0.0
09 19:53 N 13 G 20 10.00 Fair CLR 54.5 23.9 31% 29.97 0.0
09 19:33 N 13 10.00 Fair CLR 55.8 23.7 29% 29.96 0.0
09 19:13 N 15 G 22 10.00 Fair CLR 56.7 23.2 27% 29.95 0.0
09 18:53 N 12 G 20 10.00 Fair CLR 56.8 23.9 59.7 56.7 28% 29.95 0.0
09 18:33 N 14 G 21 10.00 Fair CLR 57.2 23.7 27% 29.94 0.0
09 18:13 N 18 G 22 10.00 Fair CLR 57.6 23.2 26% 29.94 0.0
09 17:53 NW 18 G 25 10.00 Fair CLR 58.1 22.6 25% 29.94 0.0
09 17:33 N 18 10.00 Fair CLR 58.3 23.7 26% 29.93 0.0
09 17:13 N 17 G 24 10.00 Fair CLR 58.6 23.7 26% 29.92 0.0
09 16:53 NW 17 G 23 10.00 Fair CLR 59.2 24.3 26% 29.92 0.0
09 16:33 N 21 G 26 10.00 Fair and Breezy CLR 59 24.6 27% 29.92 0.0
09 16:13 N 21 G 26 10.00 Fair and Breezy CLR 59.4 25.2 27% 29.91 0.0
09 15:53 N 16 G 25 10.00 Fair CLR 59 25.7 28% 29.91 0.0
09 15:33 NW 18 G 26 10.00 Fair CLR 58.5 26.2 29% 29.91 0.0
09 15:13 NW 22 G 28 10.00 Fair and Breezy CLR 59.2 27 29% 29.9 0.0
09 14:53 NW 22 G 29 10.00 Fair and Breezy CLR 58.5 26.2 29% 29.89 0.0
09 14:33 NW 18 G 28 10.00 Fair CLR 58.8 28.2 31% 29.89 0.0
09 14:13 NW 15 G 28 10.00 Fair CLR 58.6 28.4 32% 29.89 0.0
09 13:53 NW 16 G 28 10.00 Fair CLR 58.3 29.3 33% 29.89 0.0
09 13:33 N 22 G 29 10.00 Fair and Breezy CLR 57.7 28.6 33% 29.88 0.0
09 13:13 NW 21 G 31 10.00 Fair and Breezy CLR 58.5 28.9 33% 29.88 0.0
09 12:53 NW 21 G 30 10.00 Fair and Breezy CLR 57.2 28.2 57.6 49.5 33% 29.87 0.0
09 12:33 N 18 G 30 10.00 Fair CLR 57.2 30.7 37% 29.87 0.0
09 12:13 N 18 G 25 10.00 Fair CLR 56.8 31.6 38% 29.87 0.0
09 11:53 N 17 G 23 10.00 Fair CLR 56.7 31.8 39% 29.86 0.0
09 11:33 N 17 G 29 10.00 Fair CLR 55.6 30.7 39% 29.85 0.0
09 11:13 N 20 G 26 10.00 Fair CLR 54.9 32.2 42% 29.85 0.0
09 10:53 N 18 G 26 10.00 Fair CLR 54.7 33.4 45% 29.84 0.0
09 10:33 N 18 G 24 10.00 Fair CLR 53.6 34 48% 29.84 0.0
09 10:13 N 18 G 28 10.00 Fair CLR 53.2 36.9 54% 29.82 0.0
09 09:53 N 21 G 28 10.00 Partly Cloudy and Breezy SCT026 SCT046 SCT070 52.5 36.9 55% 29.81 0.0
09 09:33 N 23 G 28 10.00 Partly Cloudy and Breezy SCT026 SCT046 52.5 39.2 61% 29.81 0.0
09 09:13 N 20 G 25 10.00 Partly Cloudy SCT016 51.1 39.4 64% 29.8 0.0
09 08:53 N 17 G 21 10.00 Mostly Cloudy BKN016 51.4 42.8 72% 29.8 0.0
09 08:33 N 18 G 28 10.00 Mostly Cloudy BKN016 50.4 42.6 75% 29.79 0.0
09 08:13 N 18 G 28 10.00 Partly Cloudy SCT018 SCT120 51.8 43.3 73% 29.78 0.0
09 07:53 N 17 G 30 10.00 Partly Cloudy SCT020 SCT120 52.3 43.7 73% 29.77 0.0
09 07:33 NW 16 G 20 10.00 Partly Cloudy SCT110 51.8 42.4 71% 29.77 0.0
09 07:13 W 12 10.00 Partly Cloudy SCT100 SCT120 50.7 42.1 72% 29.75 0.0
09 06:53 W 8 10.00 Mostly Cloudy BKN100 49.5 41.5 54.1 48 74% 47 29.73 0.0
09 06:33 W 7 10.00 Mostly Cloudy SCT080 BKN100 49.1 41.4 75% 47 29.73 0.0
09 06:13 NW 5 10.00 Mostly Cloudy BKN090 BKN110 48.6 40.1 73% 47 29.73 0.0
09 05:53 NW 7 10.00 Mostly Cloudy BKN110 48.2 39.7 73% 46 29.74 0.0
09 05:33 NW 7 10.00 Partly Cloudy SCT110 49.1 39.4 69% 47 29.74 0.0
09 05:13 NW 10 10.00 Fair CLR 49.8 39.2 67% 46 29.73 0.0
09 04:53 NW 12 G 18 10.00 Fair CLR 50.4 37.6 62% 29.73 0.0
09 04:33 NW 14 10.00 Partly Cloudy SCT100 52 33.8 50% 29.72 0.0
09 04:13 NW 28 G 32 10.00 Partly Cloudy and Windy SCT100 51.1 29.3 43% 29.7 0.0
09 03:53 SW 13 10.00 Fair CLR 51.6 28.4 41% 29.65 0.0
09 03:33 SW 15 10.00 Fair CLR 52.5 28.8 40% 29.64 0.0
09 03:13 SW 14 10.00 Fair CLR 51.8 28.9 41% 29.64 0.0
09 02:53 SW 15 10.00 Fair CLR 50.9 29.1 43% 29.63 0.0
09 02:33 SW 12 10.00 Fair CLR 49.1 29.1 46% 45 29.64 0.0
09 02:13 SW 13 10.00 Fair CLR 51.1 29.8 44% 29.65 0.0
09 01:53 SW 10 10.00 Fair CLR 51.3 29.7 44% 29.66 0.0
09 01:33 SW 13 7.00 Fair CLR 51.3 29.8 44% 29.67 0.0
09 01:13 SW 10 10.00 Fair CLR 51.6 29.3 42% 29.68 0.0
09 00:53 SW 12 10.00 Fair CLR 51.6 29.8 68.9 47.8 43% 29.69 0.0
09 00:33 SW 8 10.00 Fair CLR 48.7 28.9 46% 46 29.7 0.0
09 00:13 SW 7 10.00 Fair CLR 50.5 28.6 43% 29.7 0.0
08 23:53 W 6 10.00 Fair CLR 53.1 29.3 40% 29.7 0.0
08 23:33 W 5 10.00 Fair CLR 53.2 28.4 38% 29.71 0.0
08 23:13 W 5 10.00 Fair CLR 52 28 40% 29.72 0.0
08 22:53 W 3 10.00 Fair CLR 53.4 28 38% 29.72 0.0
08 22:33 W 6 10.00 Fair CLR 53.2 27.7 37% 29.73 0.0
08 22:13 W 7 10.00 Fair CLR 51.3 26.6 38% 29.72 0.0
08 21:53 NW 8 10.00 Fair CLR 52.7 27.1 37% 29.72 0.0
08 21:33 NW 8 10.00 Fair CLR 56.7 27.1 32% 29.72 0.0
08 21:13 NW 8 10.00 Partly Cloudy SCT110 58.6 26.6 29% 29.71 0.0
08 20:53 NW 10 10.00 Fair CLR 62.1 26.1 25% 29.7 0.0
08 20:33 NW 14 10.00 Fair CLR 63.7 25.9 24% 29.69 0.0
08 20:13 NW 15 G 24 10.00 Fair CLR 65.3 25.3 22% 29.69 0.0
08 19:53 NW 16 G 24 10.00 Fair CLR 66.2 25.7 22% 29.68 0.0
08 19:33 NW 22 G 30 10.00 Fair and Breezy CLR 67.5 24.6 20% 29.67 0.0
08 19:13 NW 16 G 26 10.00 Fair CLR 68.2 27.5 22% 29.67 0.0
08 18:53 NW 21 G 29 10.00 Fair and Breezy CLR 69.4 30 75.7 69.3 23% 29.66 0.0
08 18:33 NW 21 G 29 10.00 Partly Cloudy and Breezy SCT100 70.3 31.1 23% 29.66 0.0
08 18:13 NW 22 G 29 10.00 Partly Cloudy and Breezy SCT110 71.4 30.6 22% 29.66 0.0
08 17:53 NW 14 G 28 10.00 Mostly Cloudy BKN110 72.9 30.2 21% 29.65 0.0
08 17:33 W 18 G 28 10.00 Mostly Cloudy BKN100 72.7 28.4 19% 29.65 0.0
08 17:13 W 17 G 28 10.00 Partly Cloudy SCT100 73.4 30 20% 29.65 0.0
08 16:53 NW 20 G 25 10.00 Partly Cloudy SCT110 73 29.3 20% 29.65 0.0
08 16:33 NW 24 G 32 10.00 Mostly Cloudy and Breezy BKN110 73.2 30 20% 29.65 0.0
08 16:13 W 20 G 28 10.00 Mostly Cloudy BKN110 72.7 28.8 20% 29.66 0.0
08 15:53 NW 21 G 30 10.00 Partly Cloudy and Breezy SCT100 SCT120 72.3 29.3 20% 29.65 0.0
08 15:33 W 18 G 36 10.00 Partly Cloudy SCT110 75.4 28 17% 76 29.66 0.0
08 15:13 NW 22 G 29 10.00 Partly Cloudy and Breezy SCT110 74.3 27.9 18% 29.66 0.0
08 14:53 W 20 G 26 10.00 Partly Cloudy SCT110 74.1 26.4 17% 29.67 0.0
08 14:33 W 15 G 25 10.00 Partly Cloudy SCT120 74.1 26.8 17% 29.67 0.0
08 14:13 W 15 G 31 10.00 Mostly Cloudy BKN110 73.8 25.3 16% 29.68 0.0
08 13:53 W 15 G 24 10.00 Mostly Cloudy BKN110 73.6 26.6 17% 29.69 0.0
08 13:33 W 12 G 21 10.00 Mostly Cloudy BKN120 71.6 24.8 17% 29.7 0.0
08 13:13 W 21 G 24 10.00 Mostly Cloudy and Breezy BKN120 72 25.3 17% 29.71 0.0
08 12:53 W 14 G 24 10.00 Fair CLR 71.4 25.9 71.8 49.3 18% 29.72 0.0
08 12:33 W 14 G 22 10.00 Fair CLR 70.2 25.3 19% 29.72 0.0
08 12:13 W 12 G 18 10.00 Fair CLR 69.3 25.9 20% 29.74 0.0
08 11:53 W 10 G 24 10.00 Fair CLR 68.5 25 19% 29.75 0.0
08 11:33 W 14 G 18 10.00 Fair CLR 67.8 24.1 19% 29.75 0.0
08 11:13 W 9 G 24 10.00 Fair CLR 67.1 24.6 20% 29.76 0.0
08 10:53 W 16 G 22 10.00 Fair CLR 66.2 23.7 20% 29.77 0.0
08 10:33 W 15 G 22 10.00 Fair CLR 64.8 24.3 21% 29.77 0.0
08 10:13 W 13 G 18 10.00 Fair CLR 64 23.9 22% 29.78 0.0
08 09:53 W 16 G 21 10.00 Fair CLR 62.4 22.6 22% 29.78 0.0
08 09:33 W 16 G 20 10.00 Partly Cloudy SCT110 61 23.7 24% 29.79 0.0
08 09:13 W 16 10.00 Mostly Cloudy SCT090 BKN110 60.1 22.1 23% 29.79 0.0
08 08:53 SW 14 10.00 Mostly Cloudy BKN090 57.6 22.8 26% 29.79 0.0
08 08:33 SW 15 10.00 Partly Cloudy SCT090 57.2 23.5 27% 29.8 0.0
08 08:13 SW 15 10.00 Partly Cloudy SCT120 55.8 24.6 30% 29.8 0.0
08 07:53 SW 12 10.00 Partly Cloudy SCT100 SCT120 54 25.3 33% 29.8 0.0
08 07:33 SW 9 10.00 Mostly Cloudy BKN100 BKN120 50.4 25.3 38% 29.8 0.0
08 07:13 SW 7 10.00 Mostly Cloudy BKN090 BKN120 49.5 24.6 38% 47 29.8 0.0
08 06:53 SW 7 10.00 Mostly Cloudy BKN090 BKN120 48.7 24.4 49.3 40.6 39% 46 29.8 0.0
08 06:33 SW 5 10.00 Partly Cloudy SCT110 45.1 25.3 46% 43 29.8 0.0
08 06:13 SW 8 10.00 Mostly Cloudy BKN110 44.1 23 43% 40 29.8 0.0
08 05:53 SW 9 10.00 Partly Cloudy SCT110 43.9 20.7 40% 39 29.8 0.0
08 05:33 SW 8 10.00 Fair CLR 42.1 20.1 41% 38 29.8 0.0
08 05:13 S 7 10.00 Fair CLR 43.5 20.1 39% 40 29.8 0.0
08 04:53 S 7 10.00 Fair CLR 43.2 20.3 40% 40 29.8 0.0
08 04:33 S 8 10.00 Fair CLR 42.8 20.8 42% 39 29.8 0.0
08 04:13 S 8 10.00 Fair CLR 43.7 20.8 40% 40 29.8 0.0
08 03:53 S 8 10.00 Fair CLR 45 20.7 38% 41 29.81 0.0
08 03:33 S 7 10.00 Fair CLR 45.1 20.8 38% 42 29.81 0.0
08 03:13 S 7 10.00 Fair CLR 44.8 21 39% 41 29.81 0.0
08 02:53 S 6 10.00 Fair CLR 48.6 19.9 32% 47 29.81 0.0
08 02:33 S 7 10.00 Fair CLR 49.3 19.9 31% 47 29.82 0.0
08 02:13 S 6 10.00 Fair CLR 43.3 23 45% 40 29.82 0.0
08 01:53 S 3 10.00 Fair CLR 44.8 21.9 40% 29.82 0.0
08 01:33 S 6 10.00 Fair CLR 46.2 22.1 38% 44 29.83 0.0
08 01:13 S 5 10.00 Fair CLR 47.1 22.3 37% 46 29.83 0.0
08 00:53 Calm 10.00 Fair CLR 46.6 22.3 61.9 42.8 38% 29.83 0.0
08 00:33 Calm 10.00 Fair CLR 43.3 22.6 44% 29.84 0.0
08 00:13 Calm 10.00 Fair CLR 43 23.7 47% 29.84 0.0
07 23:53 Calm 10.00 Fair CLR 45.5 22.8 41% 29.84 0.0
07 23:33 Calm 10.00 Fair CLR 45.9 22.5 40% 29.84 0.0
07 23:13 Calm 10.00 Fair CLR 45 23.4 43% 29.84 0.0
07 22:53 Calm 10.00 Fair CLR 46 22.6 40% 29.84 0.0
07 22:33 N 3 10.00 Fair CLR 45.5 23 41% 29.84 0.0
07 22:13 Calm 10.00 Fair CLR 48 23.4 38% 29.84 0.0
07 21:53 Calm 10.00 Fair CLR 50 22.5 34% 29.84 0.0
07 21:33 Calm 10.00 Fair CLR 50.7 21.9 32% 29.84 0.0
07 21:13 W 3 10.00 Fair CLR 53.6 21.4 28% 29.83 0.0
07 20:53 NW 3 10.00 Fair CLR 53.4 22.1 29% 29.83 0.0
07 20:33 NW 6 10.00 Fair CLR 54.1 22.6 29% 29.82 0.0
07 20:13 NW 6 10.00 Fair CLR 56.3 22.3 27% 29.82 0.0
07 19:53 NW 9 10.00 Fair CLR 59.7 20.8 22% 29.81 0.0
07 19:33 W 12 G 16 10.00 Fair CLR 61 19.6 20% 29.81 0.0
07 19:13 W 14 10.00 Fair CLR 61.9 19.2 19% 29.8 0.0
07 18:53 NW 8 10.00 Fair CLR 61.9 21.7 63.5 56.8 21% 29.81 0.0
07 18:33 W 7 G 18 10.00 Fair CLR 62.4 19.2 19% 29.81 0.0
07 18:13 W 12 10.00 Fair CLR 63 20.8 20% 29.81 0.0
07 17:53 NW 7 10.00 Fair CLR 62.1 19.2 19% 29.81 0.0
07 17:33 W 7 G 18 10.00 Fair CLR 62.8 17.2 17% 29.82 0.0
07 17:13 NW 13 G 28 10.00 Fair CLR 62.6 17.4 17% 29.81 0.0
07 16:53 NW 8 G 16 10.00 Fair CLR 63.1 20.1 19% 29.82 0.0
07 16:33 NW 6 10.00 Fair CLR 62.2 18.7 18% 29.82 0.0
07 16:13 W 14 G 18 10.00 Fair CLR 62.1 19.9 20% 29.83 0.0
07 15:53 W 12 G 20 10.00 Fair CLR 62.1 19.8 19% 29.83 0.0
07 15:33 NW 12 G 21 10.00 Fair CLR 61.7 21 21% 29.84 0.0
07 15:13 NW 6 G 9 10.00 Fair CLR 60.1 20.5 22% 29.84 0.0
07 14:53 W 13 10.00 Fair CLR 61 20.8 21% 29.85 0.0
07 14:33 N 5 10.00 Fair CLR 60.1 20.3 21% 29.85 0.0
07 14:13 W 16 G 21 10.00 Fair CLR 59.9 21.9 23% 29.85 0.0
07 13:53 W 5 G 21 10.00 Fair CLR 59 21.2 23% 29.85 0.0
07 13:33 NW 12 10.00 Fair CLR 57.6 22.1 25% 29.86 0.0
07 13:13 N 6 G 18 10.00 Fair CLR 57.2 21.4 25% 29.86 0.0
07 12:53 NE 8 10.00 Fair CLR 56.5 21.4 56.5 36.7 26% 29.87 0.0
07 12:33 N 10 10.00 Fair CLR 55.9 22.1 27% 29.87 0.0
07 11:53 NE 9 10.00 Fair CLR 55.4 23.9 30% 29.88 0.0
07 11:33 N 9 10.00 Fair CLR 54 22.1 29% 29.88 0.0
07 11:13 NE 3 10.00 Fair CLR 53.4 21.2 28% 29.89 0.0
07 10:53 NE 6 10.00 Fair CLR 53.4 21.9 29% 29.89 0.0
07 10:33 NE 7 10.00 Fair CLR 52.5 23.4 32% 29.89 0.0
07 10:13 Calm 10.00 Fair CLR 52 26.1 37% 29.89 0.0
07 09:53 E 5 10.00 Fair CLR 51.3 26.4 38% 29.89 0.0
Date Time (cdt) Wind (mph) Vis. (mi.) Weather Sky Cond. Air Dwpt Max. Min. Relative Humidity Wind Chill (°F) Heat Index (°F) altimeter (in) sea level (mb) 1 hr 3 hr 6 hr
6 hour
Temperature (ºF) Pressure Precipitation (in)